createdAt,value
2023-01-12T00:02:17.179Z,7.47
2023-01-12T00:07:20.618Z,7.30
2023-01-12T00:12:23.043Z,7.26
2023-01-12T00:17:25.025Z,7.21
2023-01-12T00:22:27.279Z,7.18
2023-01-12T00:27:29.258Z,7.09
2023-01-12T00:32:31.330Z,7.16
2023-01-12T00:37:34.949Z,7.17
2023-01-12T00:42:55.525Z,7.22
2023-01-12T00:47:57.697Z,7.31
2023-01-12T00:52:59.712Z,7.47
2023-01-12T00:58:01.787Z,7.50
2023-01-12T01:03:03.936Z,7.44
2023-01-12T01:08:06.526Z,7.49
2023-01-12T01:13:08.553Z,7.50
2023-01-12T01:18:10.586Z,7.53
2023-01-12T01:23:12.621Z,7.48
2023-01-12T01:28:16.640Z,7.42
2023-01-12T01:33:18.670Z,7.40
2023-01-12T01:38:20.896Z,7.50
2023-01-12T01:43:26.640Z,7.50
2023-01-12T01:48:33.566Z,7.53
2023-01-12T01:53:39.812Z,7.57
2023-01-12T01:58:54.124Z,7.69
2023-01-12T02:03:57.610Z,7.71
2023-01-12T02:09:15.712Z,7.74
2023-01-12T02:14:36.358Z,7.75
2023-01-12T02:20:14.021Z,7.71
2023-01-12T02:25:22.159Z,7.69
2023-01-12T02:31:05.477Z,7.70
2023-01-12T02:36:33.003Z,7.62
2023-01-12T02:42:04.479Z,7.58
2023-01-12T02:47:17.983Z,7.58
2023-01-12T02:52:26.687Z,7.53
2023-01-12T02:57:31.577Z,7.47
2023-01-12T03:02:34.347Z,7.41
2023-01-12T03:07:39.338Z,7.37
2023-01-12T03:12:45.046Z,7.34
2023-01-12T03:18:15.594Z,7.34
2023-01-12T03:23:37.240Z,7.49
2023-01-12T03:28:45.700Z,7.50
2023-01-12T03:33:48.013Z,7.40
2023-01-12T03:39:07.241Z,7.54
2023-01-12T03:44:21.439Z,7.69
2023-01-12T03:50:17.959Z,7.53
2023-01-12T03:55:24.225Z,7.51
2023-01-12T04:00:29.276Z,7.44
2023-01-12T04:05:31.251Z,7.50
2023-01-12T04:10:33.338Z,7.68
2023-01-12T04:15:38.122Z,7.77
2023-01-12T04:20:40.598Z,7.89
2023-01-12T04:25:42.625Z,7.96
2023-01-12T04:30:44.676Z,7.97
2023-01-12T04:35:47.725Z,7.96
2023-01-12T04:40:55.281Z,7.96
2023-01-12T04:45:59.093Z,8.00
2023-01-12T04:51:01.537Z,8.05
2023-01-12T04:56:08.437Z,7.94
2023-01-12T05:01:17.576Z,7.97
2023-01-12T05:06:19.742Z,7.98
2023-01-12T05:11:29.555Z,8.07
2023-01-12T05:16:31.732Z,8.11
2023-01-12T05:21:34.013Z,8.09
2023-01-12T05:26:36.027Z,8.18
2023-01-12T05:31:38.266Z,8.25
2023-01-12T05:36:40.299Z,8.31
2023-01-12T05:42:02.303Z,8.27
2023-01-12T05:47:04.426Z,8.31
2023-01-12T05:52:06.569Z,8.33
2023-01-12T05:57:08.743Z,8.35
2023-01-12T06:02:13.903Z,8.41
2023-01-12T06:07:16.860Z,8.28
2023-01-12T06:12:37.481Z,8.30
2023-01-12T06:17:39.599Z,8.29
2023-01-12T06:22:41.655Z,8.17
2023-01-12T06:27:43.680Z,8.18
2023-01-12T06:32:45.689Z,8.14
2023-01-12T06:37:47.670Z,8.23
2023-01-12T06:42:50.500Z,8.10
2023-01-12T06:47:52.823Z,8.09
2023-01-12T06:52:55.839Z,8.11
2023-01-12T06:58:01.693Z,8.23
2023-01-12T07:03:03.955Z,8.18
2023-01-12T07:08:05.947Z,8.20
2023-01-12T07:13:08.146Z,8.24
2023-01-12T07:18:10.464Z,8.19
2023-01-12T07:23:13.946Z,8.20
2023-01-12T07:28:16.282Z,8.36
2023-01-12T07:33:18.809Z,8.50
2023-01-12T07:38:21.195Z,8.69
2023-01-12T07:43:23.711Z,8.59
2023-01-12T07:48:27.554Z,8.66
2023-01-12T07:53:29.885Z,8.65
2023-01-12T07:58:31.970Z,8.66
2023-01-12T08:03:34.015Z,8.59
2023-01-12T08:08:36.414Z,8.69
2023-01-12T08:13:40.761Z,8.65
2023-01-12T08:19:01.610Z,8.73
2023-01-12T08:24:06.399Z,8.64
2023-01-12T08:29:13.841Z,8.56
2023-01-12T08:34:16.022Z,8.63
2023-01-12T08:39:18.288Z,8.53
2023-01-12T08:44:21.439Z,8.54
2023-01-12T08:49:28.233Z,8.68
2023-01-12T08:54:30.309Z,8.72
2023-01-12T08:59:32.439Z,8.83
2023-01-12T09:04:34.612Z,8.81
2023-01-12T09:09:37.081Z,8.86
2023-01-12T09:14:39.368Z,8.94
2023-01-12T09:19:44.157Z,8.87
2023-01-12T09:24:46.211Z,8.98
2023-01-12T09:29:48.324Z,9.05
2023-01-12T09:34:50.449Z,9.14
2023-01-12T09:39:52.906Z,9.02
2023-01-12T09:45:13.815Z,9.17
2023-01-12T09:50:24.028Z,9.25
2023-01-12T09:55:34.618Z,9.38
2023-01-12T10:00:36.709Z,9.40
2023-01-12T10:05:58.133Z,9.48
2023-01-12T10:11:38.883Z,9.49
2023-01-12T10:17:25.583Z,9.76
2023-01-12T10:22:42.291Z,9.58
2023-01-12T10:27:48.130Z,9.57
2023-01-12T10:32:50.222Z,9.79
2023-01-12T10:37:56.281Z,9.86
2023-01-12T10:43:24.088Z,10.04
2023-01-12T10:48:26.905Z,10.16
2023-01-12T10:53:44.047Z,10.20
2023-01-12T10:59:02.574Z,10.05
2023-01-12T11:04:06.149Z,10.18
2023-01-12T11:09:27.104Z,9.99
2023-01-12T11:14:39.517Z,10.07
2023-01-12T11:19:45.850Z,9.99
2023-01-12T11:24:57.780Z,10.06
2023-01-12T11:30:18.591Z,10.02
2023-01-12T11:35:39.341Z,10.12
2023-01-12T11:40:44.252Z,10.04
2023-01-12T11:45:54.990Z,10.20
2023-01-12T11:51:00.556Z,10.48
2023-01-12T11:56:42.571Z,10.72
2023-01-12T12:02:00.910Z,10.63
2023-01-12T12:07:36.941Z,10.49
2023-01-12T12:13:00.683Z,10.57
2023-01-12T12:18:49.812Z,10.80
2023-01-12T12:24:10.915Z,10.59
2023-01-12T12:29:29.535Z,10.65
2023-01-12T12:34:34.509Z,10.59
2023-01-12T12:39:49.753Z,10.51
2023-01-12T12:45:16.825Z,10.55
2023-01-12T12:51:08.905Z,10.67
2023-01-12T12:56:15.804Z,10.62
2023-01-12T13:01:23.853Z,10.49
2023-01-12T13:06:35.197Z,10.47
2023-01-12T13:12:00.578Z,10.54
2023-01-12T13:17:19.443Z,10.21
2023-01-12T13:22:44.591Z,10.47
2023-01-12T13:27:56.815Z,10.40
2023-01-12T13:33:27.612Z,10.23
2023-01-12T13:38:38.637Z,10.40
2023-01-12T13:43:58.289Z,10.41
2023-01-12T13:49:02.436Z,10.34
2023-01-12T13:54:11.469Z,10.32
2023-01-12T13:59:18.658Z,10.19
2023-01-12T14:04:56.997Z,10.38
2023-01-12T14:10:23.157Z,10.33
2023-01-12T14:15:53.374Z,10.33
2023-01-12T14:20:58.143Z,10.23
2023-01-12T14:26:06.033Z,10.16
2023-01-12T14:31:19.407Z,10.15
2023-01-12T14:36:45.324Z,10.16
2023-01-12T14:42:09.827Z,10.16
2023-01-12T14:47:26.311Z,10.06
2023-01-12T14:52:33.541Z,10.25
2023-01-12T14:57:36.403Z,10.05
2023-01-12T15:02:41.482Z,10.07
2023-01-12T15:08:22.213Z,10.03
2023-01-12T15:13:33.669Z,10.09
2023-01-12T15:18:54.435Z,10.13
2023-01-12T15:24:16.491Z,10.17
2023-01-12T15:29:18.655Z,10.16
2023-01-12T15:34:20.758Z,10.12
2023-01-12T15:39:23.217Z,10.12
2023-01-12T15:44:25.972Z,10.17
2023-01-12T15:49:30.907Z,10.05
2023-01-12T15:54:33.003Z,9.86
2023-01-12T15:59:35.115Z,9.97
2023-01-12T16:04:43.524Z,9.87
2023-01-12T16:09:47.879Z,10.06
2023-01-12T16:14:50.199Z,9.92
2023-01-12T16:19:53.013Z,9.89
2023-01-12T16:24:57.910Z,9.87
2023-01-12T16:30:00.104Z,9.72
2023-01-12T16:35:02.219Z,9.71
2023-01-12T16:40:04.902Z,9.79
2023-01-12T16:45:07.708Z,9.68
2023-01-12T16:50:10.048Z,9.83
2023-01-12T16:55:12.101Z,9.68
2023-01-12T17:00:15.699Z,9.75
2023-01-12T17:05:17.857Z,9.92
2023-01-12T17:10:20.083Z,9.85
2023-01-12T17:15:22.668Z,9.88
2023-01-12T17:20:24.975Z,9.80
2023-01-12T17:25:27.587Z,9.74
2023-01-12T17:30:29.616Z,9.72
2023-01-12T17:35:35.196Z,9.76
2023-01-12T17:40:40.208Z,9.88
2023-01-12T17:45:43.657Z,9.90
2023-01-12T17:50:47.291Z,9.77
2023-01-12T17:55:50.968Z,9.87
2023-01-12T18:00:54.135Z,9.91
2023-01-12T18:06:04.579Z,9.96
2023-01-12T18:11:09.612Z,10.04
2023-01-12T18:16:14.618Z,10.11
2023-01-12T18:21:21.487Z,10.13
2023-01-12T18:26:31.011Z,10.10
2023-01-12T18:31:38.050Z,10.11
2023-01-12T18:36:41.561Z,10.08
2023-01-12T18:42:02.825Z,10.14
2023-01-12T18:47:23.897Z,10.18
2023-01-12T18:52:44.989Z,10.32
2023-01-12T18:57:47.009Z,10.44
2023-01-12T19:02:49.168Z,10.49
2023-01-12T19:07:57.260Z,10.36
2023-01-12T19:13:19.613Z,10.40
2023-01-12T19:18:21.888Z,10.38
2023-01-12T19:23:42.584Z,10.55
2023-01-12T19:28:44.786Z,10.53
2023-01-12T19:33:46.851Z,10.42
2023-01-12T19:38:51.305Z,10.57
2023-01-12T19:43:53.684Z,10.47
2023-01-12T19:48:55.935Z,10.33
2023-01-12T19:53:57.941Z,10.31
2023-01-12T19:59:00.112Z,10.24
2023-01-12T20:04:02.647Z,10.29
2023-01-12T20:09:04.833Z,10.48
2023-01-12T20:14:07.306Z,10.40
2023-01-12T20:19:09.372Z,10.53
2023-01-12T20:24:11.622Z,10.58
2023-01-12T20:29:14.069Z,10.44
2023-01-12T20:34:16.254Z,10.37
2023-01-12T20:39:18.321Z,10.26
2023-01-12T20:44:20.817Z,10.25
2023-01-12T20:49:23.630Z,10.18
2023-01-12T20:54:26.007Z,10.26
2023-01-12T20:59:28.405Z,10.26
2023-01-12T21:04:31.334Z,10.26
2023-01-12T21:09:33.415Z,10.24
2023-01-12T21:14:36.123Z,10.34
2023-01-12T21:19:38.313Z,10.44
2023-01-12T21:24:40.395Z,10.26
2023-01-12T21:29:42.631Z,10.12
2023-01-12T21:34:44.841Z,10.22
2023-01-12T21:39:46.840Z,10.06
2023-01-12T21:44:49.132Z,10.13
2023-01-12T21:49:51.370Z,10.06
2023-01-12T21:54:53.733Z,10.08
2023-01-12T21:59:55.972Z,10.08
2023-01-12T22:04:58.017Z,10.14
2023-01-12T22:10:19.088Z,10.14
2023-01-12T22:15:23.179Z,10.07
2023-01-12T22:20:27.911Z,10.07
2023-01-12T22:25:30.006Z,10.16
2023-01-12T22:30:32.040Z,10.16
2023-01-12T22:35:34.232Z,10.15
2023-01-12T22:40:36.409Z,10.20
2023-01-12T22:45:38.963Z,10.26
2023-01-12T22:50:41.151Z,10.15
2023-01-12T22:55:43.264Z,10.14
2023-01-12T23:00:45.715Z,10.14
2023-01-12T23:05:56.086Z,10.16
2023-01-12T23:11:18.670Z,10.19
2023-01-12T23:16:21.200Z,10.19
2023-01-12T23:21:28.875Z,10.25
2023-01-12T23:26:32.921Z,10.24
2023-01-12T23:31:35.172Z,10.15
2023-01-12T23:36:37.649Z,10.12
2023-01-12T23:41:40.023Z,10.13
2023-01-12T23:46:43.198Z,10.19
2023-01-12T23:51:45.204Z,10.15
2023-01-12T23:56:54.787Z,10.14
